sensor_id;sensor_type;location;lat;lon;timestamp;temperature;humidity
52321;DHT22;38261;54.090;13.382;2023-12-20T00:01:09;6.00;99.90
52321;DHT22;38261;54.090;13.382;2023-12-20T00:02:31;6.00;99.90
52321;DHT22;38261;54.090;13.382;2023-12-20T00:03:54;6.00;99.90
52321;DHT22;38261;54.090;13.382;2023-12-20T00:05:16;6.00;99.90
52321;DHT22;38261;54.090;13.382;2023-12-20T00:06:38;6.00;99.90
52321;DHT22;38261;54.090;13.382;2023-12-20T00:08:01;6.00;99.90
52321;DHT22;38261;54.090;13.382;2023-12-20T00:09:23;6.00;99.90
52321;DHT22;38261;54.090;13.382;2023-12-20T00:10:45;6.00;99.90
52321;DHT22;38261;54.090;13.382;2023-12-20T00:12:07;6.00;99.90
52321;DHT22;38261;54.090;13.382;2023-12-20T00:13:30;6.00;99.90
52321;DHT22;38261;54.090;13.382;2023-12-20T00:14:52;6.00;99.90
52321;DHT22;38261;54.090;13.382;2023-12-20T00:16:14;6.00;99.90
52321;DHT22;38261;54.090;13.382;2023-12-20T00:17:36;6.00;99.90
52321;DHT22;38261;54.090;13.382;2023-12-20T00:18:58;6.00;99.90
52321;DHT22;38261;54.090;13.382;2023-12-20T00:20:20;6.00;99.90
52321;DHT22;38261;54.090;13.382;2023-12-20T00:21:43;6.00;99.90
52321;DHT22;38261;54.090;13.382;2023-12-20T00:23:05;6.00;99.90
52321;DHT22;38261;54.090;13.382;2023-12-20T00:24:27;6.00;99.90
52321;DHT22;38261;54.090;13.382;2023-12-20T00:25:49;5.90;99.90
52321;DHT22;38261;54.090;13.382;2023-12-20T00:27:11;5.90;99.90
52321;DHT22;38261;54.090;13.382;2023-12-20T00:28:34;5.90;99.90
52321;DHT22;38261;54.090;13.382;2023-12-20T00:29:56;5.90;99.90
52321;DHT22;38261;54.090;13.382;2023-12-20T00:31:19;5.90;99.90
52321;DHT22;38261;54.090;13.382;2023-12-20T00:32:41;5.90;99.90
52321;DHT22;38261;54.090;13.382;2023-12-20T00:34:08;5.90;99.90
52321;DHT22;38261;54.090;13.382;2023-12-20T00:35:31;5.90;99.90
52321;DHT22;38261;54.090;13.382;2023-12-20T00:36:54;5.90;99.90
52321;DHT22;38261;54.090;13.382;2023-12-20T00:38:17;5.90;99.90
52321;DHT22;38261;54.090;13.382;2023-12-20T00:39:39;5.90;99.90
52321;DHT22;38261;54.090;13.382;2023-12-20T00:41:02;5.80;99.90
52321;DHT22;38261;54.090;13.382;2023-12-20T00:42:24;5.80;99.90
52321;DHT22;38261;54.090;13.382;2023-12-20T00:43:47;5.80;99.90
52321;DHT22;38261;54.090;13.382;2023-12-20T00:45:10;5.80;99.90
52321;DHT22;38261;54.090;13.382;2023-12-20T00:46:32;5.80;99.90
52321;DHT22;38261;54.090;13.382;2023-12-20T00:47:55;5.80;99.90
52321;DHT22;38261;54.090;13.382;2023-12-20T00:49:18;5.70;99.90
52321;DHT22;38261;54.090;13.382;2023-12-20T00:50:42;5.70;99.90
52321;DHT22;38261;54.090;13.382;2023-12-20T00:52:05;5.70;99.90
52321;DHT22;38261;54.090;13.382;2023-12-20T00:53:27;5.70;99.90
52321;DHT22;38261;54.090;13.382;2023-12-20T00:54:50;5.60;99.90
52321;DHT22;38261;54.090;13.382;2023-12-20T00:56:12;5.70;99.90
52321;DHT22;38261;54.090;13.382;2023-12-20T00:57:34;5.70;99.90
52321;DHT22;38261;54.090;13.382;2023-12-20T00:58:57;5.60;99.90
52321;DHT22;38261;54.090;13.382;2023-12-20T01:00:19;5.60;99.90
52321;DHT22;38261;54.090;13.382;2023-12-20T01:01:41;5.60;99.90
52321;DHT22;38261;54.090;13.382;2023-12-20T01:03:04;5.60;99.90
52321;DHT22;38261;54.090;13.382;2023-12-20T01:04:26;5.60;99.90
52321;DHT22;38261;54.090;13.382;2023-12-20T01:05:48;5.60;99.90
52321;DHT22;38261;54.090;13.382;2023-12-20T01:07:10;5.60;99.90
52321;DHT22;38261;54.090;13.382;2023-12-20T01:08:33;5.60;99.90
52321;DHT22;38261;54.090;13.382;2023-12-20T01:09:57;5.60;99.90
52321;DHT22;38261;54.090;13.382;2023-12-20T01:11:19;5.60;99.90
52321;DHT22;38261;54.090;13.382;2023-12-20T01:12:41;5.60;99.90
52321;DHT22;38261;54.090;13.382;2023-12-20T01:14:03;5.60;99.90
52321;DHT22;38261;54.090;13.382;2023-12-20T01:15:25;5.50;99.90
52321;DHT22;38261;54.090;13.382;2023-12-20T01:16:47;5.50;99.90
52321;DHT22;38261;54.090;13.382;2023-12-20T01:18:10;5.50;99.90
52321;DHT22;38261;54.090;13.382;2023-12-20T01:19:32;5.50;99.90
52321;DHT22;38261;54.090;13.382;2023-12-20T01:20:54;5.50;99.90
52321;DHT22;38261;54.090;13.382;2023-12-20T01:22:16;5.50;99.90
52321;DHT22;38261;54.090;13.382;2023-12-20T01:23:38;5.40;99.90
52321;DHT22;38261;54.090;13.382;2023-12-20T01:25:01;5.40;99.90
52321;DHT22;38261;54.090;13.382;2023-12-20T01:26:24;5.40;99.90
52321;DHT22;38261;54.090;13.382;2023-12-20T01:27:46;5.40;99.90
52321;DHT22;38261;54.090;13.382;2023-12-20T01:29:09;5.40;99.90
52321;DHT22;38261;54.090;13.382;2023-12-20T01:30:31;5.30;99.90
52321;DHT22;38261;54.090;13.382;2023-12-20T01:31:53;5.30;99.90
52321;DHT22;38261;54.090;13.382;2023-12-20T01:33:16;5.30;99.90
52321;DHT22;38261;54.090;13.382;2023-12-20T01:34:38;5.30;99.90
52321;DHT22;38261;54.090;13.382;2023-12-20T01:36:00;5.30;99.90
52321;DHT22;38261;54.090;13.382;2023-12-20T01:37:22;5.20;99.90
52321;DHT22;38261;54.090;13.382;2023-12-20T01:38:47;5.20;99.90
52321;DHT22;38261;54.090;13.382;2023-12-20T01:40:09;5.20;99.90
52321;DHT22;38261;54.090;13.382;2023-12-20T01:41:32;5.20;99.90
52321;DHT22;38261;54.090;13.382;2023-12-20T01:43:02;5.10;99.90
52321;DHT22;38261;54.090;13.382;2023-12-20T01:44:24;5.10;99.90
52321;DHT22;38261;54.090;13.382;2023-12-20T01:45:47;5.10;99.90
52321;DHT22;38261;54.090;13.382;2023-12-20T01:47:10;5.10;99.90
52321;DHT22;38261;54.090;13.382;2023-12-20T01:48:32;5.10;99.90
52321;DHT22;38261;54.090;13.382;2023-12-20T01:49:54;5.00;99.90
52321;DHT22;38261;54.090;13.382;2023-12-20T01:51:19;5.00;99.90
52321;DHT22;38261;54.090;13.382;2023-12-20T01:52:43;5.00;99.90
52321;DHT22;38261;54.090;13.382;2023-12-20T01:54:05;5.00;99.90
52321;DHT22;38261;54.090;13.382;2023-12-20T01:55:31;5.00;99.90
52321;DHT22;38261;54.090;13.382;2023-12-20T01:56:54;5.00;99.90
52321;DHT22;38261;54.090;13.382;2023-12-20T01:58:17;5.00;99.90
52321;DHT22;38261;54.090;13.382;2023-12-20T01:59:40;5.00;99.90
52321;DHT22;38261;54.090;13.382;2023-12-20T02:01:02;5.00;99.90
52321;DHT22;38261;54.090;13.382;2023-12-20T02:02:26;4.90;99.90
52321;DHT22;38261;54.090;13.382;2023-12-20T02:03:50;5.00;99.90
52321;DHT22;38261;54.090;13.382;2023-12-20T02:05:13;4.90;99.90
52321;DHT22;38261;54.090;13.382;2023-12-20T02:06:36;5.00;99.90
52321;DHT22;38261;54.090;13.382;2023-12-20T02:08:01;4.90;99.90
52321;DHT22;38261;54.090;13.382;2023-12-20T02:09:24;4.90;99.90
52321;DHT22;38261;54.090;13.382;2023-12-20T02:10:46;4.90;99.90
52321;DHT22;38261;54.090;13.382;2023-12-20T02:12:09;4.90;99.90
52321;DHT22;38261;54.090;13.382;2023-12-20T02:13:31;4.90;99.90
52321;DHT22;38261;54.090;13.382;2023-12-20T02:14:54;4.80;99.90
52321;DHT22;38261;54.090;13.382;2023-12-20T02:16:16;4.80;99.90
52321;DHT22;38261;54.090;13.382;2023-12-20T02:17:39;4.80;99.90
52321;DHT22;38261;54.090;13.382;2023-12-20T02:19:04;4.80;99.90
52321;DHT22;38261;54.090;13.382;2023-12-20T02:20:29;4.80;99.90
52321;DHT22;38261;54.090;13.382;2023-12-20T02:22:06;4.90;99.90
52321;DHT22;38261;54.090;13.382;2023-12-20T02:23:28;4.90;99.90
52321;DHT22;38261;54.090;13.382;2023-12-20T02:24:50;5.00;99.90
52321;DHT22;38261;54.090;13.382;2023-12-20T02:26:12;5.00;99.90
52321;DHT22;38261;54.090;13.382;2023-12-20T02:27:36;5.00;99.90
52321;DHT22;38261;54.090;13.382;2023-12-20T02:28:58;5.10;99.90
52321;DHT22;38261;54.090;13.382;2023-12-20T02:30:21;5.10;99.90
52321;DHT22;38261;54.090;13.382;2023-12-20T02:31:43;5.20;99.90
52321;DHT22;38261;54.090;13.382;2023-12-20T02:33:07;5.20;99.90
52321;DHT22;38261;54.090;13.382;2023-12-20T02:34:31;5.30;99.90
52321;DHT22;38261;54.090;13.382;2023-12-20T02:35:53;5.30;99.90
52321;DHT22;38261;54.090;13.382;2023-12-20T02:37:15;5.40;99.90
52321;DHT22;38261;54.090;13.382;2023-12-20T02:38:38;5.40;99.90
52321;DHT22;38261;54.090;13.382;2023-12-20T02:40:00;5.40;99.90
52321;DHT22;38261;54.090;13.382;2023-12-20T02:41:22;5.50;99.90
52321;DHT22;38261;54.090;13.382;2023-12-20T02:42:44;5.50;99.90
52321;DHT22;38261;54.090;13.382;2023-12-20T02:44:06;5.50;99.90
52321;DHT22;38261;54.090;13.382;2023-12-20T02:45:28;5.60;99.90
52321;DHT22;38261;54.090;13.382;2023-12-20T02:46:50;5.60;99.90
52321;DHT22;38261;54.090;13.382;2023-12-20T02:48:13;5.70;99.90
52321;DHT22;38261;54.090;13.382;2023-12-20T02:49:35;5.70;99.90
52321;DHT22;38261;54.090;13.382;2023-12-20T02:50:57;5.70;99.90
52321;DHT22;38261;54.090;13.382;2023-12-20T02:52:19;5.70;99.90
52321;DHT22;38261;54.090;13.382;2023-12-20T02:53:42;5.70;99.90
52321;DHT22;38261;54.090;13.382;2023-12-20T02:55:04;5.80;99.90
52321;DHT22;38261;54.090;13.382;2023-12-20T02:56:26;5.80;99.90
52321;DHT22;38261;54.090;13.382;2023-12-20T02:57:48;5.80;99.90
52321;DHT22;38261;54.090;13.382;2023-12-20T02:59:11;5.80;99.90
52321;DHT22;38261;54.090;13.382;2023-12-20T03:00:33;5.80;99.90
52321;DHT22;38261;54.090;13.382;2023-12-20T03:01:56;5.90;99.90
52321;DHT22;38261;54.090;13.382;2023-12-20T03:03:18;5.90;99.90
52321;DHT22;38261;54.090;13.382;2023-12-20T03:04:40;5.90;99.90
52321;DHT22;38261;54.090;13.382;2023-12-20T03:06:02;5.90;99.90
52321;DHT22;38261;54.090;13.382;2023-12-20T03:07:25;5.90;99.90
52321;DHT22;38261;54.090;13.382;2023-12-20T03:08:47;6.00;99.90
52321;DHT22;38261;54.090;13.382;2023-12-20T03:10:09;6.00;99.90
52321;DHT22;38261;54.090;13.382;2023-12-20T03:11:41;5.90;99.90
52321;DHT22;38261;54.090;13.382;2023-12-20T03:13:03;6.00;99.90
52321;DHT22;38261;54.090;13.382;2023-12-20T03:14:26;6.00;99.90
52321;DHT22;38261;54.090;13.382;2023-12-20T03:15:48;5.90;99.90
52321;DHT22;38261;54.090;13.382;2023-12-20T03:17:10;5.90;99.90
52321;DHT22;38261;54.090;13.382;2023-12-20T03:18:32;5.90;99.90
52321;DHT22;38261;54.090;13.382;2023-12-20T03:19:54;6.00;99.90
52321;DHT22;38261;54.090;13.382;2023-12-20T03:21:17;6.00;99.90
52321;DHT22;38261;54.090;13.382;2023-12-20T03:22:39;5.90;99.90
52321;DHT22;38261;54.090;13.382;2023-12-20T03:24:01;6.00;99.90
52321;DHT22;38261;54.090;13.382;2023-12-20T03:25:23;5.90;99.90
52321;DHT22;38261;54.090;13.382;2023-12-20T03:26:45;6.00;99.90
52321;DHT22;38261;54.090;13.382;2023-12-20T03:28:07;6.00;99.90
52321;DHT22;38261;54.090;13.382;2023-12-20T03:29:29;5.90;99.90
52321;DHT22;38261;54.090;13.382;2023-12-20T03:30:51;6.00;99.90
52321;DHT22;38261;54.090;13.382;2023-12-20T03:32:14;5.90;99.90
52321;DHT22;38261;54.090;13.382;2023-12-20T03:33:36;6.00;99.90
52321;DHT22;38261;54.090;13.382;2023-12-20T03:34:58;6.00;99.90
52321;DHT22;38261;54.090;13.382;2023-12-20T03:36:21;5.90;99.90
52321;DHT22;38261;54.090;13.382;2023-12-20T03:37:43;5.90;99.90
52321;DHT22;38261;54.090;13.382;2023-12-20T03:39:05;5.90;99.90
52321;DHT22;38261;54.090;13.382;2023-12-20T03:40:28;5.80;99.90
52321;DHT22;38261;54.090;13.382;2023-12-20T03:41:50;5.80;99.90
52321;DHT22;38261;54.090;13.382;2023-12-20T03:43:12;5.80;99.90
52321;DHT22;38261;54.090;13.382;2023-12-20T03:44:34;5.80;99.90
52321;DHT22;38261;54.090;13.382;2023-12-20T03:45:56;5.80;99.90
52321;DHT22;38261;54.090;13.382;2023-12-20T03:47:20;5.70;99.90
52321;DHT22;38261;54.090;13.382;2023-12-20T03:48:42;5.80;99.90
52321;DHT22;38261;54.090;13.382;2023-12-20T03:50:05;5.70;99.90
52321;DHT22;38261;54.090;13.382;2023-12-20T03:51:27;5.70;99.90
52321;DHT22;38261;54.090;13.382;2023-12-20T03:52:49;5.70;99.90
52321;DHT22;38261;54.090;13.382;2023-12-20T03:54:12;5.70;99.90
52321;DHT22;38261;54.090;13.382;2023-12-20T03:55:34;5.60;99.90
52321;DHT22;38261;54.090;13.382;2023-12-20T03:56:56;5.60;99.90
52321;DHT22;38261;54.090;13.382;2023-12-20T03:58:18;5.60;99.90
52321;DHT22;38261;54.090;13.382;2023-12-20T03:59:40;5.60;99.90
52321;DHT22;38261;54.090;13.382;2023-12-20T04:01:02;5.60;99.90
52321;DHT22;38261;54.090;13.382;2023-12-20T04:02:25;5.60;99.90
52321;DHT22;38261;54.090;13.382;2023-12-20T04:03:47;5.60;99.90
52321;DHT22;38261;54.090;13.382;2023-12-20T04:05:10;5.60;99.90
52321;DHT22;38261;54.090;13.382;2023-12-20T04:06:32;5.50;99.90
52321;DHT22;38261;54.090;13.382;2023-12-20T04:07:54;5.60;99.90
52321;DHT22;38261;54.090;13.382;2023-12-20T04:09:17;5.60;99.90
52321;DHT22;38261;54.090;13.382;2023-12-20T04:10:39;5.60;99.90
52321;DHT22;38261;54.090;13.382;2023-12-20T04:12:01;5.70;99.90
52321;DHT22;38261;54.090;13.382;2023-12-20T04:13:23;5.70;99.90
52321;DHT22;38261;54.090;13.382;2023-12-20T04:14:45;5.70;99.90
52321;DHT22;38261;54.090;13.382;2023-12-20T04:16:07;5.70;99.90
52321;DHT22;38261;54.090;13.382;2023-12-20T04:17:29;5.70;99.90
52321;DHT22;38261;54.090;13.382;2023-12-20T04:18:52;5.80;99.90
52321;DHT22;38261;54.090;13.382;2023-12-20T04:20:14;5.80;99.90
52321;DHT22;38261;54.090;13.382;2023-12-20T04:21:36;5.80;99.90
52321;DHT22;38261;54.090;13.382;2023-12-20T04:22:58;5.80;99.90
52321;DHT22;38261;54.090;13.382;2023-12-20T04:24:20;5.90;99.90
52321;DHT22;38261;54.090;13.382;2023-12-20T04:25:44;5.80;99.90
52321;DHT22;38261;54.090;13.382;2023-12-20T04:27:06;5.90;99.90
52321;DHT22;38261;54.090;13.382;2023-12-20T04:28:28;5.90;99.90
52321;DHT22;38261;54.090;13.382;2023-12-20T04:29:52;5.90;99.90
52321;DHT22;38261;54.090;13.382;2023-12-20T04:31:14;5.90;99.90
52321;DHT22;38261;54.090;13.382;2023-12-20T04:32:36;5.90;99.90
52321;DHT22;38261;54.090;13.382;2023-12-20T04:33:59;6.00;99.90
52321;DHT22;38261;54.090;13.382;2023-12-20T04:35:21;6.00;99.90
52321;DHT22;38261;54.090;13.382;2023-12-20T04:36:43;6.00;99.90
52321;DHT22;38261;54.090;13.382;2023-12-20T04:38:05;6.00;99.90
52321;DHT22;38261;54.090;13.382;2023-12-20T04:39:27;6.00;99.90
52321;DHT22;38261;54.090;13.382;2023-12-20T04:40:49;6.10;99.90
52321;DHT22;38261;54.090;13.382;2023-12-20T04:42:12;6.00;99.90
52321;DHT22;38261;54.090;13.382;2023-12-20T04:43:34;6.10;99.90
52321;DHT22;38261;54.090;13.382;2023-12-20T04:44:56;6.10;99.90
52321;DHT22;38261;54.090;13.382;2023-12-20T04:46:18;6.10;99.90
52321;DHT22;38261;54.090;13.382;2023-12-20T04:47:42;6.10;99.90
52321;DHT22;38261;54.090;13.382;2023-12-20T04:49:04;6.10;99.90
52321;DHT22;38261;54.090;13.382;2023-12-20T04:50:27;6.10;99.90
52321;DHT22;38261;54.090;13.382;2023-12-20T04:51:49;6.10;99.90
52321;DHT22;38261;54.090;13.382;2023-12-20T04:53:11;6.10;99.90
52321;DHT22;38261;54.090;13.382;2023-12-20T04:54:33;6.10;99.90
52321;DHT22;38261;54.090;13.382;2023-12-20T04:55:55;6.10;99.90
52321;DHT22;38261;54.090;13.382;2023-12-20T04:57:17;6.10;99.90
52321;DHT22;38261;54.090;13.382;2023-12-20T04:58:39;6.10;99.90
52321;DHT22;38261;54.090;13.382;2023-12-20T05:00:02;6.10;99.90
52321;DHT22;38261;54.090;13.382;2023-12-20T05:01:25;6.10;99.90
52321;DHT22;38261;54.090;13.382;2023-12-20T05:02:47;6.10;99.90
52321;DHT22;38261;54.090;13.382;2023-12-20T05:04:09;6.10;99.90
52321;DHT22;38261;54.090;13.382;2023-12-20T05:05:31;6.10;99.90
52321;DHT22;38261;54.090;13.382;2023-12-20T05:06:54;6.10;99.90
52321;DHT22;38261;54.090;13.382;2023-12-20T05:08:16;6.10;99.90
52321;DHT22;38261;54.090;13.382;2023-12-20T05:09:38;6.20;99.90
52321;DHT22;38261;54.090;13.382;2023-12-20T05:11:01;6.20;99.90
52321;DHT22;38261;54.090;13.382;2023-12-20T05:12:23;6.20;99.90
52321;DHT22;38261;54.090;13.382;2023-12-20T05:13:45;6.20;99.90
52321;DHT22;38261;54.090;13.382;2023-12-20T05:15:11;6.20;99.90
52321;DHT22;38261;54.090;13.382;2023-12-20T05:16:33;6.20;99.90
52321;DHT22;38261;54.090;13.382;2023-12-20T05:17:56;6.30;99.90
52321;DHT22;38261;54.090;13.382;2023-12-20T05:19:18;6.30;99.90
52321;DHT22;38261;54.090;13.382;2023-12-20T05:20:40;6.30;99.90
52321;DHT22;38261;54.090;13.382;2023-12-20T05:22:03;6.30;99.90
52321;DHT22;38261;54.090;13.382;2023-12-20T05:23:25;6.30;99.90
52321;DHT22;38261;54.090;13.382;2023-12-20T05:24:47;6.30;99.90
52321;DHT22;38261;54.090;13.382;2023-12-20T05:26:09;6.30;99.90
52321;DHT22;38261;54.090;13.382;2023-12-20T05:27:31;6.30;99.90
52321;DHT22;38261;54.090;13.382;2023-12-20T05:28:53;6.30;99.90
52321;DHT22;38261;54.090;13.382;2023-12-20T05:30:16;6.30;99.90
52321;DHT22;38261;54.090;13.382;2023-12-20T05:31:38;6.30;99.90
52321;DHT22;38261;54.090;13.382;2023-12-20T05:33:00;6.30;99.90
52321;DHT22;38261;54.090;13.382;2023-12-20T05:34:22;6.30;99.90
52321;DHT22;38261;54.090;13.382;2023-12-20T05:35:45;6.30;99.90
52321;DHT22;38261;54.090;13.382;2023-12-20T05:37:07;6.30;99.90
52321;DHT22;38261;54.090;13.382;2023-12-20T05:38:29;6.30;99.90
52321;DHT22;38261;54.090;13.382;2023-12-20T05:39:51;6.30;99.90
52321;DHT22;38261;54.090;13.382;2023-12-20T05:41:13;6.30;99.90
52321;DHT22;38261;54.090;13.382;2023-12-20T05:42:36;6.30;99.90
52321;DHT22;38261;54.090;13.382;2023-12-20T05:43:59;6.30;99.90
52321;DHT22;38261;54.090;13.382;2023-12-20T05:45:21;6.30;99.90
52321;DHT22;38261;54.090;13.382;2023-12-20T05:46:43;6.30;99.90
52321;DHT22;38261;54.090;13.382;2023-12-20T05:48:06;6.30;99.90
52321;DHT22;38261;54.090;13.382;2023-12-20T05:49:28;6.30;99.90
52321;DHT22;38261;54.090;13.382;2023-12-20T05:50:50;6.30;99.90
52321;DHT22;38261;54.090;13.382;2023-12-20T05:52:12;6.30;99.90
52321;DHT22;38261;54.090;13.382;2023-12-20T05:53:35;6.30;99.90
52321;DHT22;38261;54.090;13.382;2023-12-20T05:54:57;6.30;99.90
52321;DHT22;38261;54.090;13.382;2023-12-20T05:56:23;6.30;99.90
52321;DHT22;38261;54.090;13.382;2023-12-20T05:57:45;6.40;99.90
52321;DHT22;38261;54.090;13.382;2023-12-20T05:59:07;6.40;99.90
52321;DHT22;38261;54.090;13.382;2023-12-20T06:00:30;6.40;99.90
52321;DHT22;38261;54.090;13.382;2023-12-20T06:01:52;6.40;99.90
52321;DHT22;38261;54.090;13.382;2023-12-20T06:03:14;6.40;99.90
52321;DHT22;38261;54.090;13.382;2023-12-20T06:04:36;6.40;99.90
52321;DHT22;38261;54.090;13.382;2023-12-20T06:05:58;6.40;99.90
52321;DHT22;38261;54.090;13.382;2023-12-20T06:07:36;6.40;99.90
52321;DHT22;38261;54.090;13.382;2023-12-20T06:08:58;6.40;99.90
52321;DHT22;38261;54.090;13.382;2023-12-20T06:10:21;6.40;99.90
52321;DHT22;38261;54.090;13.382;2023-12-20T06:11:44;6.40;99.90
52321;DHT22;38261;54.090;13.382;2023-12-20T06:13:06;6.40;99.90
52321;DHT22;38261;54.090;13.382;2023-12-20T06:14:28;6.40;99.90
52321;DHT22;38261;54.090;13.382;2023-12-20T06:15:54;6.40;99.90
52321;DHT22;38261;54.090;13.382;2023-12-20T06:17:16;6.40;99.90
52321;DHT22;38261;54.090;13.382;2023-12-20T06:18:38;6.50;99.90
52321;DHT22;38261;54.090;13.382;2023-12-20T06:20:01;6.50;99.90
52321;DHT22;38261;54.090;13.382;2023-12-20T06:21:23;6.50;99.90
52321;DHT22;38261;54.090;13.382;2023-12-20T06:22:46;6.40;99.90
52321;DHT22;38261;54.090;13.382;2023-12-20T06:24:08;6.50;99.90
52321;DHT22;38261;54.090;13.382;2023-12-20T06:25:31;6.40;99.90
52321;DHT22;38261;54.090;13.382;2023-12-20T06:26:54;6.40;99.90
52321;DHT22;38261;54.090;13.382;2023-12-20T06:28:17;6.40;99.90
52321;DHT22;38261;54.090;13.382;2023-12-20T06:29:39;6.40;99.90
52321;DHT22;38261;54.090;13.382;2023-12-20T06:31:03;6.40;99.90
52321;DHT22;38261;54.090;13.382;2023-12-20T06:32:25;6.40;99.90
52321;DHT22;38261;54.090;13.382;2023-12-20T06:33:48;6.40;99.90
52321;DHT22;38261;54.090;13.382;2023-12-20T06:35:19;6.40;99.90
52321;DHT22;38261;54.090;13.382;2023-12-20T06:36:41;6.40;99.90
52321;DHT22;38261;54.090;13.382;2023-12-20T06:38:04;6.40;99.90
52321;DHT22;38261;54.090;13.382;2023-12-20T06:39:26;6.40;99.90
52321;DHT22;38261;54.090;13.382;2023-12-20T06:40:48;6.40;99.90
52321;DHT22;38261;54.090;13.382;2023-12-20T06:42:10;6.40;99.90
52321;DHT22;38261;54.090;13.382;2023-12-20T06:43:32;6.50;99.90
52321;DHT22;38261;54.090;13.382;2023-12-20T06:45:10;6.50;99.90
52321;DHT22;38261;54.090;13.382;2023-12-20T06:46:32;6.50;99.90
52321;DHT22;38261;54.090;13.382;2023-12-20T06:47:54;6.50;99.90
52321;DHT22;38261;54.090;13.382;2023-12-20T06:49:17;6.50;99.90
52321;DHT22;38261;54.090;13.382;2023-12-20T06:50:40;6.50;99.90
52321;DHT22;38261;54.090;13.382;2023-12-20T06:52:02;6.50;99.90
52321;DHT22;38261;54.090;13.382;2023-12-20T06:53:25;6.50;99.90
52321;DHT22;38261;54.090;13.382;2023-12-20T06:54:47;6.50;99.90
52321;DHT22;38261;54.090;13.382;2023-12-20T06:56:11;6.50;99.90
52321;DHT22;38261;54.090;13.382;2023-12-20T06:57:40;6.50;99.90
52321;DHT22;38261;54.090;13.382;2023-12-20T06:59:02;6.50;99.90
52321;DHT22;38261;54.090;13.382;2023-12-20T07:00:24;6.50;99.90
52321;DHT22;38261;54.090;13.382;2023-12-20T07:01:49;6.50;99.90
52321;DHT22;38261;54.090;13.382;2023-12-20T07:03:12;6.40;99.90
52321;DHT22;38261;54.090;13.382;2023-12-20T07:04:38;6.50;99.90
52321;DHT22;38261;54.090;13.382;2023-12-20T07:06:00;6.40;99.90
52321;DHT22;38261;54.090;13.382;2023-12-20T07:07:23;6.40;99.90
52321;DHT22;38261;54.090;13.382;2023-12-20T07:08:46;6.40;99.90
52321;DHT22;38261;54.090;13.382;2023-12-20T07:10:08;6.40;99.90
52321;DHT22;38261;54.090;13.382;2023-12-20T07:11:31;6.40;99.90
52321;DHT22;38261;54.090;13.382;2023-12-20T07:12:53;6.40;99.90
52321;DHT22;38261;54.090;13.382;2023-12-20T07:14:17;6.40;99.90
52321;DHT22;38261;54.090;13.382;2023-12-20T07:15:40;6.40;99.90
52321;DHT22;38261;54.090;13.382;2023-12-20T07:17:02;6.40;99.90
52321;DHT22;38261;54.090;13.382;2023-12-20T07:18:25;6.40;99.90
52321;DHT22;38261;54.090;13.382;2023-12-20T07:19:47;6.40;99.90
52321;DHT22;38261;54.090;13.382;2023-12-20T07:21:09;6.40;99.90
52321;DHT22;38261;54.090;13.382;2023-12-20T07:22:31;6.40;99.90
52321;DHT22;38261;54.090;13.382;2023-12-20T07:23:54;6.40;99.90
52321;DHT22;38261;54.090;13.382;2023-12-20T07:25:16;6.40;99.90
52321;DHT22;38261;54.090;13.382;2023-12-20T07:26:38;6.30;99.90
52321;DHT22;38261;54.090;13.382;2023-12-20T07:28:01;6.40;99.90
52321;DHT22;38261;54.090;13.382;2023-12-20T07:29:24;6.40;99.90
52321;DHT22;38261;54.090;13.382;2023-12-20T07:30:47;6.40;99.90
52321;DHT22;38261;54.090;13.382;2023-12-20T07:32:09;6.40;99.90
52321;DHT22;38261;54.090;13.382;2023-12-20T07:33:31;6.40;99.90
52321;DHT22;38261;54.090;13.382;2023-12-20T07:35:01;6.40;99.90
52321;DHT22;38261;54.090;13.382;2023-12-20T07:36:25;6.40;99.90
52321;DHT22;38261;54.090;13.382;2023-12-20T07:37:47;6.40;99.90
52321;DHT22;38261;54.090;13.382;2023-12-20T07:39:09;6.40;99.90
52321;DHT22;38261;54.090;13.382;2023-12-20T07:40:32;6.40;99.90
52321;DHT22;38261;54.090;13.382;2023-12-20T07:41:54;6.40;99.90
52321;DHT22;38261;54.090;13.382;2023-12-20T07:43:16;6.40;99.90
52321;DHT22;38261;54.090;13.382;2023-12-20T07:44:38;6.40;99.90
52321;DHT22;38261;54.090;13.382;2023-12-20T07:46:05;6.40;99.90
52321;DHT22;38261;54.090;13.382;2023-12-20T07:47:28;6.40;99.90
52321;DHT22;38261;54.090;13.382;2023-12-20T07:48:50;6.40;99.90
52321;DHT22;38261;54.090;13.382;2023-12-20T07:50:12;6.30;99.90
52321;DHT22;38261;54.090;13.382;2023-12-20T07:51:35;6.30;99.90
52321;DHT22;38261;54.090;13.382;2023-12-20T07:52:57;6.30;99.90
52321;DHT22;38261;54.090;13.382;2023-12-20T07:54:21;6.40;99.90
52321;DHT22;38261;54.090;13.382;2023-12-20T07:55:45;6.40;99.90
52321;DHT22;38261;54.090;13.382;2023-12-20T07:57:08;6.40;99.90
52321;DHT22;38261;54.090;13.382;2023-12-20T07:58:30;6.40;99.90
52321;DHT22;38261;54.090;13.382;2023-12-20T08:00:11;6.40;99.90
52321;DHT22;38261;54.090;13.382;2023-12-20T08:01:33;6.40;99.90
52321;DHT22;38261;54.090;13.382;2023-12-20T08:02:56;6.50;99.90
52321;DHT22;38261;54.090;13.382;2023-12-20T08:04:18;6.50;99.90
52321;DHT22;38261;54.090;13.382;2023-12-20T08:05:40;6.50;99.90
52321;DHT22;38261;54.090;13.382;2023-12-20T08:07:03;6.50;99.90
52321;DHT22;38261;54.090;13.382;2023-12-20T08:08:26;6.50;99.90
52321;DHT22;38261;54.090;13.382;2023-12-20T08:09:48;6.50;99.90
52321;DHT22;38261;54.090;13.382;2023-12-20T08:11:10;6.50;99.90
52321;DHT22;38261;54.090;13.382;2023-12-20T08:12:32;6.50;99.90
52321;DHT22;38261;54.090;13.382;2023-12-20T08:13:55;6.50;99.90
52321;DHT22;38261;54.090;13.382;2023-12-20T08:15:17;6.50;99.90
52321;DHT22;38261;54.090;13.382;2023-12-20T08:16:39;6.50;99.90
52321;DHT22;38261;54.090;13.382;2023-12-20T08:18:02;6.40;99.90
52321;DHT22;38261;54.090;13.382;2023-12-20T08:19:24;6.50;99.90
52321;DHT22;38261;54.090;13.382;2023-12-20T08:20:46;6.40;99.90
52321;DHT22;38261;54.090;13.382;2023-12-20T08:22:11;6.40;99.90
52321;DHT22;38261;54.090;13.382;2023-12-20T08:23:34;6.40;99.90
52321;DHT22;38261;54.090;13.382;2023-12-20T08:24:56;6.40;99.90
52321;DHT22;38261;54.090;13.382;2023-12-20T08:26:21;6.40;99.90
52321;DHT22;38261;54.090;13.382;2023-12-20T08:27:44;6.50;99.90
52321;DHT22;38261;54.090;13.382;2023-12-20T08:29:07;6.50;99.90
52321;DHT22;38261;54.090;13.382;2023-12-20T08:30:29;6.50;99.90
52321;DHT22;38261;54.090;13.382;2023-12-20T08:31:53;6.60;99.90
52321;DHT22;38261;54.090;13.382;2023-12-20T08:33:18;6.50;99.90
52321;DHT22;38261;54.090;13.382;2023-12-20T08:34:41;6.60;99.90
52321;DHT22;38261;54.090;13.382;2023-12-20T08:36:03;6.60;99.90
52321;DHT22;38261;54.090;13.382;2023-12-20T08:37:27;6.60;99.90
52321;DHT22;38261;54.090;13.382;2023-12-20T08:38:50;6.60;99.90
52321;DHT22;38261;54.090;13.382;2023-12-20T08:40:12;6.60;99.90
52321;DHT22;38261;54.090;13.382;2023-12-20T08:41:35;6.60;99.90
52321;DHT22;38261;54.090;13.382;2023-12-20T08:42:57;6.60;99.90